Time;durP1;ratioP1;P1;durP2;ratioP2;P2;SDS_P1;SDS_P2;PMS_P1;PMS_P2;Temp;Humidity;BMP_temperature;BMP_pressure;BME280_temperature;BME280_humidity;BME280_pressure;Samples;Min_cycle;Max_cycle;Signal;HPM_P1;HPM_P2
2021/05/16 00:00:23;;;;;;;21.83;11.23;;;;;;;;;;4434592;32;20176;-71
2021/05/16 00:02:48;;;;;;;23.65;9.93;;;;;;;;;;4432880;32;20133;-72
2021/05/16 00:05:14;;;;;;;26.37;11.30;;;;;;;;;;4419418;32;20188;-71
2021/05/16 00:07:40;;;;;;;28.95;11.60;;;;;;;;;;4419197;32;20623;-72
2021/05/16 00:10:06;;;;;;;21.67;11.00;;;;;;;;;;4433252;32;20153;-72
2021/05/16 00:12:31;;;;;;;24.85;9.65;;;;;;;;;;4434908;32;20205;-72
2021/05/16 00:14:57;;;;;;;18.77;9.80;;;;;;;;;;4434270;32;20597;-71
2021/05/16 00:17:22;;;;;;;22.10;10.40;;;;;;;;;;4404982;32;20187;-72
2021/05/16 00:19:47;;;;;;;20.33;9.57;;;;;;;;;;4431228;32;20239;-72
2021/05/16 00:22:13;;;;;;;20.92;9.68;;;;;;;;;;4433706;32;20252;-72
2021/05/16 00:24:38;;;;;;;20.05;10.20;;;;;;;;;;4434242;32;20172;-72
2021/05/16 00:27:03;;;;;;;18.25;8.77;;;;;;;;;;4433521;32;20416;-72
2021/05/16 00:29:29;;;;;;;18.60;8.93;;;;;;;;;;4433876;32;20160;-72
2021/05/16 00:31:54;;;;;;;16.95;7.82;;;;;;;;;;4432574;32;20546;-72
2021/05/16 00:34:19;;;;;;;16.52;8.20;;;;;;;;;;4434226;32;20287;-72
2021/05/16 00:36:44;;;;;;;12.00;6.75;;;;;;;;;;4435011;32;20133;-72
2021/05/16 00:39:09;;;;;;;12.55;7.15;;;;;;;;;;4434748;32;20518;-71
2021/05/16 00:41:35;;;;;;;17.23;7.18;;;;;;;;;;4433258;32;20225;-72
2021/05/16 00:44:00;;;;;;;14.90;7.50;;;;;;;;;;4434239;32;20256;-70
2021/05/16 00:46:25;;;;;;;15.18;7.35;;;;;;;;;;4434197;32;20283;-70
2021/05/16 00:48:50;;;;;;;22.02;8.27;;;;;;;;;;4433718;32;20130;-70
2021/05/16 00:51:15;;;;;;;16.80;9.18;;;;;;;;;;4434517;32;20182;-70
2021/05/16 00:53:41;;;;;;;15.80;9.35;;;;;;;;;;4434519;32;20129;-70
2021/05/16 00:56:06;;;;;;;19.00;9.60;;;;;;;;;;4434665;32;20141;-70
2021/05/16 00:58:31;;;;;;;14.20;8.23;;;;;;;;;;4429620;32;20150;-70
2021/05/16 01:00:56;;;;;;;23.15;10.27;;;;;;;;;;4418037;32;20134;-70
2021/05/16 01:03:22;;;;;;;23.33;9.55;;;;;;;;;;4417411;32;20412;-70
2021/05/16 01:05:47;;;;;;;25.42;12.25;;;;;;;;;;4418479;32;20134;-71
2021/05/16 01:08:13;;;;;;;28.33;12.23;;;;;;;;;;4416501;32;20519;-71
2021/05/16 01:10:38;;;;;;;23.48;12.98;;;;;;;;;;4419231;32;20161;-71
2021/05/16 01:13:05;;;;;;;22.70;11.10;;;;;;;;;;4417068;32;20164;-71
2021/05/16 01:15:31;;;;;;;21.55;11.20;;;;;;;;;;4417237;32;20134;-71
2021/05/16 01:17:57;;;;;;;24.98;11.12;;;;;;;;;;4403923;32;20188;-70
2021/05/16 01:20:26;;;;;;;23.60;9.93;;;;;;;;;;4417396;32;20431;-71
2021/05/16 01:22:54;;;;;;;26.83;11.07;;;;;;;;;;4416932;32;20149;-71
2021/05/16 01:25:20;;;;;;;24.85;10.23;;;;;;;;;;4403309;32;20162;-70
2021/05/16 01:27:45;;;;;;;27.52;11.20;;;;;;;;;;4430389;32;20280;-70
2021/05/16 01:30:11;;;;;;;21.75;9.50;;;;;;;;;;4420084;32;20192;-70
2021/05/16 01:32:36;;;;;;;23.75;10.00;;;;;;;;;;4432336;32;20145;-71
2021/05/16 01:35:01;;;;;;;24.33;8.98;;;;;;;;;;4434249;32;20186;-71
2021/05/16 01:37:27;;;;;;;26.75;10.05;;;;;;;;;;4418403;32;20173;-70
2021/05/16 01:39:52;;;;;;;31.48;11.30;;;;;;;;;;4405248;32;20641;-69
2021/05/16 01:42:18;;;;;;;35.90;12.02;;;;;;;;;;4419445;32;20157;-69
2021/05/16 01:44:43;;;;;;;40.65;14.18;;;;;;;;;;4417215;32;20459;-70
2021/05/16 01:47:09;;;;;;;41.90;14.85;;;;;;;;;;4402849;32;20162;-69
2021/05/16 01:49:40;;;;;;;48.92;16.73;;;;;;;;;;4418273;32;20263;-69
2021/05/16 01:52:05;;;;;;;48.47;17.90;;;;;;;;;;4418664;32;20167;-69
2021/05/16 01:54:30;;;;;;;59.85;19.35;;;;;;;;;;4418665;32;20133;-70
2021/05/16 01:56:56;;;;;;;63.58;20.25;;;;;;;;;;4424068;32;20169;-70
2021/05/16 01:59:21;;;;;;;58.90;19.45;;;;;;;;;;4432018;32;20224;-70
2021/05/16 02:01:46;;;;;;;53.63;17.25;;;;;;;;;;4419515;32;20290;-70
2021/05/16 02:04:11;;;;;;;58.42;20.12;;;;;;;;;;4433653;32;20541;-70
2021/05/16 02:06:39;;;;;;;48.63;17.15;;;;;;;;;;4431892;32;20164;-69
2021/05/16 02:09:04;;;;;;;55.20;18.63;;;;;;;;;;4431842;32;20138;-70
2021/05/16 02:11:29;;;;;;;63.65;19.95;;;;;;;;;;4419794;32;20229;-69
2021/05/16 02:13:55;;;;;;;62.83;19.90;;;;;;;;;;4431681;32;20264;-69
2021/05/16 02:16:20;;;;;;;52.47;18.48;;;;;;;;;;4431804;32;20196;-69
2021/05/16 02:18:45;;;;;;;56.72;18.48;;;;;;;;;;4432575;32;20142;-69
2021/05/16 02:21:11;;;;;;;54.55;19.10;;;;;;;;;;4435488;32;20129;-69
2021/05/16 02:23:37;;;;;;;53.87;18.87;;;;;;;;;;4436629;32;20452;-69
2021/05/16 02:26:03;;;;;;;49.47;18.42;;;;;;;;;;4421095;32;20195;-69
2021/05/16 02:28:28;;;;;;;48.38;18.67;;;;;;;;;;4436042;32;20218;-69
2021/05/16 02:30:53;;;;;;;56.30;18.08;;;;;;;;;;4436459;32;20272;-69
2021/05/16 02:33:18;;;;;;;53.40;20.83;;;;;;;;;;4434269;32;20320;-69
2021/05/16 02:35:43;;;;;;;56.60;19.02;;;;;;;;;;4434341;32;20606;-69
2021/05/16 02:38:09;;;;;;;53.17;17.87;;;;;;;;;;4436566;32;20201;-69
2021/05/16 02:40:34;;;;;;;44.05;17.60;;;;;;;;;;4420531;32;20169;-69
2021/05/16 02:42:59;;;;;;;45.63;16.15;;;;;;;;;;4422383;32;20169;-70
2021/05/16 02:45:24;;;;;;;49.40;16.65;;;;;;;;;;4437045;32;20213;-71
2021/05/16 02:47:50;;;;;;;54.28;18.35;;;;;;;;;;4434771;32;20218;-70
2021/05/16 02:50:15;;;;;;;46.58;17.27;;;;;;;;;;4420757;32;20307;-69
2021/05/16 02:52:41;;;;;;;33.83;15.68;;;;;;;;;;4434806;32;20578;-69
2021/05/16 02:55:06;;;;;;;34.10;14.98;;;;;;;;;;4429684;32;20446;-70
2021/05/16 02:57:31;;;;;;;29.73;11.23;;;;;;;;;;4421004;32;20250;-69
2021/05/16 02:59:56;;;;;;;35.78;13.25;;;;;;;;;;4419495;32;20179;-69
2021/05/16 03:02:22;;;;;;;31.95;12.55;;;;;;;;;;4420660;32;20259;-69
2021/05/16 03:04:47;;;;;;;35.45;12.57;;;;;;;;;;4419921;32;20274;-68
2021/05/16 03:07:12;;;;;;;27.17;10.98;;;;;;;;;;4419263;32;20203;-69
2021/05/16 03:09:37;;;;;;;36.97;12.65;;;;;;;;;;4419157;32;20233;-68
2021/05/16 03:12:03;;;;;;;27.75;11.85;;;;;;;;;;4424601;32;20141;-68
2021/05/16 03:14:28;;;;;;;28.00;10.63;;;;;;;;;;4435938;32;20228;-69
2021/05/16 03:16:54;;;;;;;27.87;9.73;;;;;;;;;;4420336;32;20193;-68
2021/05/16 03:19:19;;;;;;;25.80;10.25;;;;;;;;;;4435234;32;20585;-68
2021/05/16 03:21:44;;;;;;;19.37;9.18;;;;;;;;;;4421146;32;20161;-69
2021/05/16 03:24:10;;;;;;;28.02;11.45;;;;;;;;;;4435297;32;20150;-69
2021/05/16 03:26:35;;;;;;;28.48;10.88;;;;;;;;;;4418542;32;20273;-69
2021/05/16 03:29:00;;;;;;;25.23;9.57;;;;;;;;;;4405295;32;20161;-68
2021/05/16 03:31:25;;;;;;;24.67;8.63;;;;;;;;;;4419079;32;20338;-68
2021/05/16 03:33:51;;;;;;;25.98;8.70;;;;;;;;;;4406733;32;20166;-69
2021/05/16 03:36:16;;;;;;;26.30;8.98;;;;;;;;;;4431213;32;20145;-69
2021/05/16 03:38:41;;;;;;;25.88;9.85;;;;;;;;;;4432683;32;20584;-70
2021/05/16 03:41:06;;;;;;;26.60;10.70;;;;;;;;;;4435441;32;20198;-70
2021/05/16 03:43:31;;;;;;;28.62;9.98;;;;;;;;;;4419843;32;20480;-69
2021/05/16 03:45:57;;;;;;;29.27;10.05;;;;;;;;;;4434318;32;20151;-69
2021/05/16 03:48:22;;;;;;;21.70;8.38;;;;;;;;;;4417667;32;20212;-69
2021/05/16 03:50:47;;;;;;;29.17;10.17;;;;;;;;;;4419020;32;20268;-69
2021/05/16 03:53:12;;;;;;;31.47;10.67;;;;;;;;;;4420444;32;20125;-69
2021/05/16 03:55:37;;;;;;;29.33;9.90;;;;;;;;;;4419030;32;20601;-69
2021/05/16 03:58:03;;;;;;;31.83;10.98;;;;;;;;;;4417242;32;20252;-69
2021/05/16 04:00:28;;;;;;;28.08;10.43;;;;;;;;;;4421580;32;20195;-68
2021/05/16 04:02:53;;;;;;;34.03;12.15;;;;;;;;;;4420773;32;20189;-68
2021/05/16 04:05:18;;;;;;;32.00;11.30;;;;;;;;;;4422778;32;20224;-68
2021/05/16 04:07:44;;;;;;;24.08;9.73;;;;;;;;;;4420456;32;20165;-69
2021/05/16 04:10:09;;;;;;;27.92;10.73;;;;;;;;;;4418570;32;20209;-68
2021/05/16 04:12:35;;;;;;;20.90;8.05;;;;;;;;;;4418477;32;20301;-69
2021/05/16 04:15:00;;;;;;;19.30;6.40;;;;;;;;;;4416652;32;20169;-69
2021/05/16 04:17:25;;;;;;;16.13;5.57;;;;;;;;;;4417668;32;20279;-68
2021/05/16 04:19:50;;;;;;;14.93;5.27;;;;;;;;;;4417827;32;20183;-69
2021/05/16 04:22:16;;;;;;;16.10;6.90;;;;;;;;;;4418936;32;20150;-69
2021/05/16 04:24:41;;;;;;;21.52;6.78;;;;;;;;;;4417592;32;20260;-69
2021/05/16 04:27:06;;;;;;;19.52;7.68;;;;;;;;;;4407344;32;20188;-69
2021/05/16 04:29:31;;;;;;;25.70;8.43;;;;;;;;;;4404268;32;20191;-69
2021/05/16 04:31:56;;;;;;;29.10;9.93;;;;;;;;;;4402670;32;20157;-69
2021/05/16 04:34:22;;;;;;;33.03;11.10;;;;;;;;;;4402982;32;20226;-69
2021/05/16 04:36:47;;;;;;;29.33;10.63;;;;;;;;;;4404266;32;20716;-69
2021/05/16 04:39:13;;;;;;;36.20;11.30;;;;;;;;;;4404253;32;20202;-69
2021/05/16 04:41:38;;;;;;;30.83;11.00;;;;;;;;;;4404591;32;20343;-69
2021/05/16 04:44:03;;;;;;;37.95;11.73;;;;;;;;;;4402973;32;20146;-69
2021/05/16 04:46:29;;;;;;;40.25;11.50;;;;;;;;;;4403856;32;20302;-69
2021/05/16 04:48:54;;;;;;;39.83;11.55;;;;;;;;;;4416253;32;20564;-69
2021/05/16 04:51:19;;;;;;;38.92;12.77;;;;;;;;;;4418619;32;20337;-69
2021/05/16 04:53:44;;;;;;;32.25;10.38;;;;;;;;;;4418099;32;20280;-69
2021/05/16 04:56:09;;;;;;;35.88;11.23;;;;;;;;;;4418795;32;20130;-69
2021/05/16 04:58:35;;;;;;;30.12;9.35;;;;;;;;;;4418021;32;20186;-68
2021/05/16 05:01:00;;;;;;;34.30;9.35;;;;;;;;;;4418926;32;20179;-70
2021/05/16 05:03:26;;;;;;;33.05;10.45;;;;;;;;;;4404628;32;20226;-68
2021/05/16 05:05:54;;;;;;;38.00;10.65;;;;;;;;;;4423471;32;20141;-69
2021/05/16 05:08:23;;;;;;;32.38;9.55;;;;;;;;;;4419284;32;20192;-69
2021/05/16 05:10:48;;;;;;;34.58;9.60;;;;;;;;;;4429284;32;20486;-69
2021/05/16 05:13:13;;;;;;;37.40;10.05;;;;;;;;;;4416908;32;20133;-69
2021/05/16 05:15:39;;;;;;;35.50;10.15;;;;;;;;;;4418276;32;20165;-69
2021/05/16 05:18:04;;;;;;;34.92;9.57;;;;;;;;;;4404142;32;20714;-70
2021/05/16 05:20:29;;;;;;;37.88;9.75;;;;;;;;;;4418130;32;20156;-69
2021/05/16 05:22:55;;;;;;;31.73;8.48;;;;;;;;;;4404435;32;20210;-69
2021/05/16 05:25:20;;;;;;;30.80;8.93;;;;;;;;;;4417605;32;20160;-69
2021/05/16 05:27:45;;;;;;;28.33;8.70;;;;;;;;;;4408555;32;20230;-70
2021/05/16 05:30:11;;;;;;;36.42;9.65;;;;;;;;;;4419374;32;20633;-70
2021/05/16 05:32:36;;;;;;;38.00;11.02;;;;;;;;;;4429655;32;20179;-70
2021/05/16 05:35:01;;;;;;;33.20;10.90;;;;;;;;;;4417670;32;20622;-70
2021/05/16 05:37:26;;;;;;;36.20;10.00;;;;;;;;;;4418226;32;20259;-69
2021/05/16 05:39:51;;;;;;;41.13;11.17;;;;;;;;;;4431443;32;20169;-69
2021/05/16 05:42:17;;;;;;;40.50;12.30;;;;;;;;;;4424391;32;20262;-70
2021/05/16 05:44:42;;;;;;;42.97;11.20;;;;;;;;;;4403553;32;20245;-70
2021/05/16 05:47:07;;;;;;;36.85;11.12;;;;;;;;;;4416765;32;20581;-70
2021/05/16 05:49:33;;;;;;;46.70;11.75;;;;;;;;;;4421482;32;20596;-69
2021/05/16 05:52:00;;;;;;;33.47;10.27;;;;;;;;;;4431163;32;20186;-69
2021/05/16 05:54:25;;;;;;;40.20;10.40;;;;;;;;;;4432782;32;20306;-70
2021/05/16 05:56:50;;;;;;;39.67;11.63;;;;;;;;;;4417283;32;20302;-70
2021/05/16 05:59:16;;;;;;;43.67;12.18;;;;;;;;;;4428104;32;20200;-69
2021/05/16 06:01:41;;;;;;;39.13;10.30;;;;;;;;;;4417726;32;20263;-69
2021/05/16 06:04:07;;;;;;;39.30;11.30;;;;;;;;;;4416329;32;20435;-69
2021/05/16 06:06:32;;;;;;;30.50;10.38;;;;;;;;;;4415313;32;20475;-69
2021/05/16 06:08:57;;;;;;;43.28;11.38;;;;;;;;;;4430703;32;20307;-69
2021/05/16 06:11:22;;;;;;;43.00;10.77;;;;;;;;;;4415648;32;20436;-69
2021/05/16 06:13:47;;;;;;;39.05;10.05;;;;;;;;;;4432779;32;20293;-69
2021/05/16 06:16:13;;;;;;;40.80;10.77;;;;;;;;;;4403276;32;20188;-70
2021/05/16 06:18:38;;;;;;;36.63;9.85;;;;;;;;;;4412048;32;20200;-69
2021/05/16 06:21:03;;;;;;;29.87;10.50;;;;;;;;;;4429478;32;20209;-70
2021/05/16 06:23:35;;;;;;;39.08;9.68;;;;;;;;;;4418102;32;20173;-69
2021/05/16 06:26:00;;;;;;;38.72;10.18;;;;;;;;;;4404829;32;20482;-69
2021/05/16 06:28:25;;;;;;;37.53;9.18;;;;;;;;;;4412819;32;20280;-69
2021/05/16 06:30:50;;;;;;;35.33;9.85;;;;;;;;;;4431763;32;20200;-69
2021/05/16 06:33:16;;;;;;;35.17;10.10;;;;;;;;;;4431594;32;20552;-69
2021/05/16 06:35:41;;;;;;;34.00;9.10;;;;;;;;;;4431554;32;20137;-69
2021/05/16 06:38:06;;;;;;;44.17;11.63;;;;;;;;;;4431817;32;20150;-69
2021/05/16 06:40:32;;;;;;;44.03;12.00;;;;;;;;;;4432421;32;20229;-68
2021/05/16 06:42:59;;;;;;;46.53;13.43;;;;;;;;;;4432836;32;20640;-69
2021/05/16 06:45:24;;;;;;;40.03;11.18;;;;;;;;;;4417904;32;20162;-68
2021/05/16 06:47:49;;;;;;;33.63;10.98;;;;;;;;;;4432607;32;20193;-68
2021/05/16 06:50:15;;;;;;;33.97;9.87;;;;;;;;;;4419883;32;20157;-68
2021/05/16 06:52:40;;;;;;;33.83;9.13;;;;;;;;;;4418955;32;20256;-69
2021/05/16 06:55:07;;;;;;;36.97;10.55;;;;;;;;;;4433646;32;20159;-67
2021/05/16 06:57:32;;;;;;;35.50;9.75;;;;;;;;;;4427922;32;20158;-68
2021/05/16 06:59:57;;;;;;;36.47;9.90;;;;;;;;;;4416522;32;20203;-68
2021/05/16 07:02:23;;;;;;;27.23;8.65;;;;;;;;;;4428106;32;20574;-68
2021/05/16 07:04:48;;;;;;;35.67;10.15;;;;;;;;;;4431704;32;20146;-68
2021/05/16 07:07:13;;;;;;;49.17;11.80;;;;;;;;;;4433840;32;20142;-68
2021/05/16 07:09:41;;;;;;;33.80;9.88;;;;;;;;;;4434703;32;20191;-67
2021/05/16 07:12:06;;;;;;;25.70;8.68;;;;;;;;;;4435520;32;20548;-68
2021/05/16 07:14:31;;;;;;;28.00;7.95;;;;;;;;;;4434479;32;20130;-69
2021/05/16 07:16:56;;;;;;;28.40;7.32;;;;;;;;;;4437313;32;20146;-68
2021/05/16 07:19:23;;;;;;;27.25;8.15;;;;;;;;;;4422699;32;20145;-67
2021/05/16 07:21:48;;;;;;;28.50;8.85;;;;;;;;;;4432289;32;20145;-67
2021/05/16 07:24:13;;;;;;;32.03;8.15;;;;;;;;;;4430682;32;20218;-68
2021/05/16 07:26:39;;;;;;;30.67;8.68;;;;;;;;;;4417989;32;20161;-67
2021/05/16 07:29:04;;;;;;;23.87;8.20;;;;;;;;;;4419990;32;20229;-68
2021/05/16 07:31:29;;;;;;;24.65;7.28;;;;;;;;;;4427832;32;20145;-68
2021/05/16 07:33:54;;;;;;;22.05;7.62;;;;;;;;;;4421805;32;20512;-67
2021/05/16 07:36:19;;;;;;;22.73;7.87;;;;;;;;;;4420084;32;20232;-67
2021/05/16 07:38:45;;;;;;;29.17;8.63;;;;;;;;;;4418857;32;20283;-67
2021/05/16 07:41:11;;;;;;;24.87;8.30;;;;;;;;;;4430959;32;20252;-68
2021/05/16 07:43:36;;;;;;;20.20;6.97;;;;;;;;;;4435129;32;20160;-68
2021/05/16 07:46:01;;;;;;;27.42;7.97;;;;;;;;;;4433849;32;20171;-68
2021/05/16 07:48:29;;;;;;;28.98;8.07;;;;;;;;;;4433457;32;20194;-68
2021/05/16 07:50:55;;;;;;;32.15;9.00;;;;;;;;;;4435637;32;20221;-69
2021/05/16 07:53:20;;;;;;;32.75;8.90;;;;;;;;;;4435766;32;20454;-69
2021/05/16 07:55:45;;;;;;;31.95;8.70;;;;;;;;;;4433448;32;20129;-69
2021/05/16 07:58:10;;;;;;;21.05;7.68;;;;;;;;;;4434182;32;20256;-68
2021/05/16 08:00:36;;;;;;;27.10;7.70;;;;;;;;;;4435037;32;20252;-68
2021/05/16 08:03:01;;;;;;;26.00;7.30;;;;;;;;;;4421070;32;20180;-68
2021/05/16 08:05:26;;;;;;;26.77;6.70;;;;;;;;;;4434029;32;20129;-68
2021/05/16 08:07:51;;;;;;;24.12;7.00;;;;;;;;;;4421778;32;20283;-71
2021/05/16 08:10:20;;;;;;;22.67;6.78;;;;;;;;;;4434087;32;20156;-70
2021/05/16 08:12:45;;;;;;;22.70;6.72;;;;;;;;;;4434978;32;20218;-70
2021/05/16 08:15:11;;;;;;;20.17;6.78;;;;;;;;;;4434941;32;20149;-70
2021/05/16 08:17:36;;;;;;;27.73;8.18;;;;;;;;;;4433275;32;20145;-70
2021/05/16 08:20:03;;;;;;;20.08;6.80;;;;;;;;;;4427537;32;20243;-70
2021/05/16 08:22:28;;;;;;;20.33;7.30;;;;;;;;;;4417964;32;20503;-69
2021/05/16 08:24:53;;;;;;;13.23;4.80;;;;;;;;;;4420186;32;20164;-69
2021/05/16 08:27:18;;;;;;;13.88;4.22;;;;;;;;;;4417524;32;20261;-70
2021/05/16 08:29:45;;;;;;;13.25;4.40;;;;;;;;;;4434136;32;20204;-69
2021/05/16 08:32:11;;;;;;;12.95;4.05;;;;;;;;;;4433481;32;20156;-69
2021/05/16 08:34:36;;;;;;;11.55;4.00;;;;;;;;;;4433483;32;20407;-68
2021/05/16 08:37:03;;;;;;;15.13;5.15;;;;;;;;;;4433210;32;20129;-69
2021/05/16 08:39:29;;;;;;;20.12;6.07;;;;;;;;;;4433403;32;20272;-69
2021/05/16 08:41:54;;;;;;;17.90;6.10;;;;;;;;;;4432946;32;20161;-68
2021/05/16 08:44:20;;;;;;;20.52;7.80;;;;;;;;;;4418298;32;20202;-68
2021/05/16 08:46:46;;;;;;;18.37;6.65;;;;;;;;;;4433211;32;20609;-68
2021/05/16 08:49:11;;;;;;;18.55;7.57;;;;;;;;;;4431174;32;20214;-69
2021/05/16 08:51:37;;;;;;;23.92;6.28;;;;;;;;;;4425354;32;20538;-69
2021/05/16 08:54:02;;;;;;;25.50;6.78;;;;;;;;;;4432023;32;20148;-68
2021/05/16 08:56:27;;;;;;;16.42;8.20;;;;;;;;;;4418650;32;20499;-68
2021/05/16 08:58:52;;;;;;;24.42;8.35;;;;;;;;;;4422610;32;20215;-68
2021/05/16 09:01:18;;;;;;;22.15;7.37;;;;;;;;;;4416292;32;20136;-68
2021/05/16 09:03:43;;;;;;;22.52;7.20;;;;;;;;;;4417279;32;20274;-69
2021/05/16 09:06:08;;;;;;;22.53;7.43;;;;;;;;;;4403922;32;20610;-68
2021/05/16 09:08:34;;;;;;;27.08;7.50;;;;;;;;;;4417467;32;20252;-69
2021/05/16 09:11:00;;;;;;;26.15;7.97;;;;;;;;;;4416523;32;20512;-69
2021/05/16 09:13:27;;;;;;;27.10;8.82;;;;;;;;;;4417572;32;20155;-68
2021/05/16 09:16:04;;;;;;;31.67;8.75;;;;;;;;;;4416880;32;20134;-68
2021/05/16 09:18:50;;;;;;;25.52;8.38;;;;;;;;;;4424960;32;20211;-68
2021/05/16 09:21:24;;;;;;;25.85;6.90;;;;;;;;;;4431113;32;20202;-72
2021/05/16 09:23:59;;;;;;;19.80;5.97;;;;;;;;;;4417796;32;20620;-73
2021/05/16 09:26:24;;;;;;;26.73;6.05;;;;;;;;;;4418426;32;20210;-72
2021/05/16 09:28:49;;;;;;;24.33;5.35;;;;;;;;;;4417428;32;20134;-73
2021/05/16 09:31:30;;;;;;;20.73;6.30;;;;;;;;;;4418693;32;20190;-75
2021/05/16 09:34:02;;;;;;;36.05;7.12;;;;;;;;;;4418310;32;20236;-76
2021/05/16 09:36:32;;;;;;;17.92;4.15;;;;;;;;;;4418422;32;20138;-75
2021/05/16 09:39:10;;;;;;;14.23;5.32;;;;;;;;;;4419159;32;20507;-75
2021/05/16 09:41:35;;;;;;;13.05;4.30;;;;;;;;;;4417806;32;20137;-75
2021/05/16 09:44:00;;;;;;;17.85;4.37;;;;;;;;;;4431146;32;20137;-75
2021/05/16 09:46:25;;;;;;;11.98;4.03;;;;;;;;;;4432289;32;20191;-76
2021/05/16 09:48:50;;;;;;;10.00;3.25;;;;;;;;;;4432631;32;20653;-75
2021/05/16 09:51:19;;;;;;;9.77;3.53;;;;;;;;;;4419193;32;20187;-75
2021/05/16 09:54:10;;;;;;;10.23;2.90;;;;;;;;;;4418360;32;20158;-75
2021/05/16 09:56:39;;;;;;;7.00;2.92;;;;;;;;;;4428556;32;20258;-76
2021/05/16 09:59:09;;;;;;;12.10;3.60;;;;;;;;;;4433854;32;20213;-75
2021/05/16 10:01:35;;;;;;;14.85;4.40;;;;;;;;;;4434429;32;20126;-76
2021/05/16 10:04:01;;;;;;;15.23;5.03;;;;;;;;;;4433050;32;20141;-75
2021/05/16 10:06:27;;;;;;;15.32;5.68;;;;;;;;;;4418880;32;20220;-76
2021/05/16 10:08:52;;;;;;;19.55;5.18;;;;;;;;;;4419021;32;20200;-75
2021/05/16 10:11:19;;;;;;;16.35;5.07;;;;;;;;;;4416881;32;20507;-74
2021/05/16 10:13:50;;;;;;;22.48;5.60;;;;;;;;;;4417943;32;20138;-75
2021/05/16 10:16:17;;;;;;;18.95;5.75;;;;;;;;;;4418653;32;20207;-74
2021/05/16 10:18:44;;;;;;;19.37;5.10;;;;;;;;;;4419850;32;20169;-74
2021/05/16 10:21:09;;;;;;;26.10;6.25;;;;;;;;;;4417833;32;20172;-75
2021/05/16 10:23:36;;;;;;;24.98;5.53;;;;;;;;;;4419871;32;20137;-75
2021/05/16 10:26:14;;;;;;;19.10;5.90;;;;;;;;;;4419469;32;20165;-75
2021/05/16 10:28:58;;;;;;;24.08;5.50;;;;;;;;;;4418542;32;20264;-75
2021/05/16 10:31:38;;;;;;;18.15;5.18;;;;;;;;;;4432841;32;20149;-75
2021/05/16 10:34:22;;;;;;;21.35;5.50;;;;;;;;;;4433817;32;20423;-74
2021/05/16 10:36:47;;;;;;;14.77;4.15;;;;;;;;;;4407670;32;20153;-74
2021/05/16 10:39:32;;;;;;;20.27;4.40;;;;;;;;;;4403753;32;20215;-73
2021/05/16 10:42:13;;;;;;;18.45;3.90;;;;;;;;;;4420510;32;20264;-71
2021/05/16 10:44:41;;;;;;;22.15;4.57;;;;;;;;;;4420814;32;20138;-69
2021/05/16 10:47:06;;;;;;;17.55;4.30;;;;;;;;;;4428278;32;20191;-70
2021/05/16 10:49:33;;;;;;;19.48;4.25;;;;;;;;;;4436338;32;20597;-71
2021/05/16 10:52:18;;;;;;;24.37;5.30;;;;;;;;;;4436561;32;20233;-70
2021/05/16 10:54:47;;;;;;;14.60;4.32;;;;;;;;;;4434258;32;20451;-70
2021/05/16 10:57:19;;;;;;;17.98;4.35;;;;;;;;;;4434301;32;20160;-70
2021/05/16 10:59:45;;;;;;;18.25;4.22;;;;;;;;;;4422420;32;20673;-70
2021/05/16 11:02:11;;;;;;;19.30;5.40;;;;;;;;;;4436163;32;20165;-72
2021/05/16 11:04:46;;;;;;;19.67;4.78;;;;;;;;;;4435065;32;20204;-72
2021/05/16 11:07:30;;;;;;;16.90;4.28;;;;;;;;;;4436146;32;20187;-72
2021/05/16 11:10:14;;;;;;;17.67;4.18;;;;;;;;;;4436411;32;20137;-72
2021/05/16 11:12:39;;;;;;;14.57;4.25;;;;;;;;;;4422040;32;20229;-72
2021/05/16 11:15:05;;;;;;;26.30;4.65;;;;;;;;;;4421072;32;20207;-72
2021/05/16 11:17:30;;;;;;;23.62;4.40;;;;;;;;;;4421367;32;20153;-72
2021/05/16 11:19:55;;;;;;;19.23;3.95;;;;;;;;;;4420442;32;20129;-72
2021/05/16 11:22:21;;;;;;;18.02;4.00;;;;;;;;;;4421048;32;20179;-72
2021/05/16 11:24:47;;;;;;;14.75;3.72;;;;;;;;;;4431887;32;20233;-71
2021/05/16 11:27:23;;;;;;;14.93;4.12;;;;;;;;;;4435939;32;20280;-71
2021/05/16 11:29:52;;;;;;;17.90;4.40;;;;;;;;;;4434407;32;20129;-71
2021/05/16 11:32:31;;;;;;;15.52;4.20;;;;;;;;;;4436155;32;20157;-71
2021/05/16 11:35:02;;;;;;;19.05;3.87;;;;;;;;;;4421219;32;20202;-72
2021/05/16 11:37:29;;;;;;;19.35;4.43;;;;;;;;;;4429909;32;20150;-72
2021/05/16 11:40:10;;;;;;;19.98;4.32;;;;;;;;;;4435028;32;20156;-71
2021/05/16 11:42:36;;;;;;;27.87;5.20;;;;;;;;;;4433367;32;20254;-71
2021/05/16 11:45:03;;;;;;;18.37;4.25;;;;;;;;;;4434949;32;20200;-71
2021/05/16 11:47:35;;;;;;;15.63;3.80;;;;;;;;;;4434427;32;20183;-71
2021/05/16 11:50:00;;;;;;;19.90;4.53;;;;;;;;;;4434036;32;20144;-73
2021/05/16 11:52:25;;;;;;;17.15;4.15;;;;;;;;;;4429228;32;20194;-73
2021/05/16 11:54:50;;;;;;;21.33;4.90;;;;;;;;;;4406103;32;20208;-73
2021/05/16 11:57:16;;;;;;;16.10;3.92;;;;;;;;;;4405234;32;20236;-72
2021/05/16 11:59:41;;;;;;;13.77;3.65;;;;;;;;;;4419391;32;20445;-72
2021/05/16 12:02:07;;;;;;;17.15;4.43;;;;;;;;;;4432629;32;20179;-73
2021/05/16 12:04:39;;;;;;;14.00;2.90;;;;;;;;;;4434677;32;20126;-71
2021/05/16 12:07:04;;;;;;;8.05;2.20;;;;;;;;;;4434663;32;20269;-73
2021/05/16 12:09:36;;;;;;;4.22;1.20;;;;;;;;;;4434176;32;20145;-72
2021/05/16 12:12:01;;;;;;;3.50;1.40;;;;;;;;;;4418998;32;20184;-72
2021/05/16 12:14:27;;;;;;;7.37;1.55;;;;;;;;;;4421738;32;20569;-71
2021/05/16 12:16:53;;;;;;;3.85;1.20;;;;;;;;;;4433868;32;20241;-72
2021/05/16 12:19:22;;;;;;;3.25;1.10;;;;;;;;;;4414745;32;20532;-71
2021/05/16 12:21:51;;;;;;;2.78;1.10;;;;;;;;;;4421132;32;20157;-71
2021/05/16 12:24:20;;;;;;;3.72;1.35;;;;;;;;;;4419199;32;20489;-70
2021/05/16 12:26:45;;;;;;;1.52;0.73;;;;;;;;;;4419882;32;20317;-70
2021/05/16 12:29:12;;;;;;;2.12;0.80;;;;;;;;;;4418582;32;20141;-71
2021/05/16 12:31:38;;;;;;;3.05;0.90;;;;;;;;;;4425557;32;20237;-71
2021/05/16 12:34:04;;;;;;;2.25;0.73;;;;;;;;;;4419874;32;20401;-71
2021/05/16 12:36:43;;;;;;;2.80;0.80;;;;;;;;;;4419165;32;20273;-72
2021/05/16 12:39:08;;;;;;;5.00;1.00;;;;;;;;;;4427585;32;20171;-71
2021/05/16 12:41:33;;;;;;;2.75;0.90;;;;;;;;;;4419013;32;20184;-72
2021/05/16 12:44:04;;;;;;;3.28;0.90;;;;;;;;;;4429006;32;20302;-70
2021/05/16 12:46:43;;;;;;;1.23;0.60;;;;;;;;;;4423039;32;20344;-68
2021/05/16 12:49:08;;;;;;;1.42;0.60;;;;;;;;;;4426842;32;20275;-69
2021/05/16 12:51:34;;;;;;;2.30;0.75;;;;;;;;;;4418992;32;20138;-69
2021/05/16 12:54:38;;;;;;;2.25;1.00;;;;;;;;;;4420561;32;20569;-70
2021/05/16 12:57:14;;;;;;;2.65;0.77;;;;;;;;;;4341479;33;20227;-69
2021/05/16 12:59:41;;;;;;;3.58;0.80;;;;;;;;;;4351672;32;20201;-68
2021/05/16 13:02:10;;;;;;;3.37;0.90;;;;;;;;;;4403181;32;20165;-69
2021/05/16 13:04:52;;;;;;;4.37;1.23;;;;;;;;;;4416599;32;20200;-69
2021/05/16 13:07:36;;;;;;;2.55;0.85;;;;;;;;;;4403532;32;20653;-69
2021/05/16 13:10:20;;;;;;;4.15;1.20;;;;;;;;;;4417836;32;20145;-70
2021/05/16 13:12:45;;;;;;;5.80;1.67;;;;;;;;;;4419393;32;20168;-70
2021/05/16 13:15:11;;;;;;;4.65;1.77;;;;;;;;;;4431073;32;20145;-71
2021/05/16 13:17:36;;;;;;;4.57;1.50;;;;;;;;;;4416987;32;20180;-69
2021/05/16 13:20:01;;;;;;;3.87;1.07;;;;;;;;;;4417205;32;20133;-70
2021/05/16 13:22:35;;;;;;;5.67;2.43;;;;;;;;;;4417256;32;20283;-69
2021/05/16 13:25:01;;;;;;;6.35;1.50;;;;;;;;;;4418010;32;20233;-71
2021/05/16 13:27:26;;;;;;;6.03;2.33;;;;;;;;;;4421932;32;20224;-69
2021/05/16 13:29:56;;;;;;;4.18;1.40;;;;;;;;;;4433147;32;20171;-69
2021/05/16 13:32:21;;;;;;;3.25;1.33;;;;;;;;;;4431801;32;20196;-70
2021/05/16 13:34:48;;;;;;;4.12;1.42;;;;;;;;;;4417374;32;20161;-69
2021/05/16 13:37:14;;;;;;;4.93;1.65;;;;;;;;;;4416359;32;20892;-69
2021/05/16 13:39:40;;;;;;;3.67;1.30;;;;;;;;;;4402769;32;20274;-70
2021/05/16 13:42:05;;;;;;;6.97;1.60;;;;;;;;;;4418407;32;20256;-70
2021/05/16 13:44:31;;;;;;;5.05;1.50;;;;;;;;;;4418680;32;20142;-70
2021/05/16 13:46:56;;;;;;;4.57;2.00;;;;;;;;;;4418093;32;20150;-70
2021/05/16 13:49:22;;;;;;;4.20;1.27;;;;;;;;;;4415491;32;20315;-70
2021/05/16 13:51:47;;;;;;;4.80;1.42;;;;;;;;;;4424956;32;20714;-70
2021/05/16 13:54:13;;;;;;;3.70;1.30;;;;;;;;;;4430991;32;20403;-70
2021/05/16 13:56:39;;;;;;;4.53;1.33;;;;;;;;;;4432808;32;20263;-70
2021/05/16 13:59:08;;;;;;;4.05;1.20;;;;;;;;;;4418474;32;20173;-70
2021/05/16 14:04:23;;;;;;;5.30;1.67;;;;;;;;;;4431539;32;20177;-68
2021/05/16 14:06:48;;;;;;;5.78;1.80;;;;;;;;;;4422615;32;20157;-69
2021/05/16 14:09:14;;;;;;;5.20;1.70;;;;;;;;;;4401728;32;20173;-70
2021/05/16 14:11:40;;;;;;;4.78;1.30;;;;;;;;;;4417319;32;20265;-70
2021/05/16 14:14:06;;;;;;;3.60;1.70;;;;;;;;;;4415563;32;20167;-70
2021/05/16 14:16:31;;;;;;;3.08;1.25;;;;;;;;;;4406003;32;20169;-70
2021/05/16 14:18:58;;;;;;;4.80;1.70;;;;;;;;;;4435362;32;20243;-68
2021/05/16 14:21:23;;;;;;;5.65;1.80;;;;;;;;;;4433629;32;20212;-69
2021/05/16 14:23:49;;;;;;;6.80;1.87;;;;;;;;;;4435102;32;20149;-68
2021/05/16 14:26:14;;;;;;;3.33;1.75;;;;;;;;;;4426093;32;20504;-69
2021/05/16 14:28:39;;;;;;;7.65;2.78;;;;;;;;;;4420108;32;20844;-69